YACS weather

Acacia Downs Airport
New South Wales, Australia

Public forecast

Using degrees Celsius for public forecast. Weather courtesy of forecast.io.

Closest aviation weather report (METAR) to Acacia Downs Airport

Closest report is Broken Hill Airport, 41.4 nm (76.6 km) SSW. Retrieved 2019/10/22 15:00 UTC (45 minutes ago):

YBHI 221500Z AUTO 11008KT 9999 // NCD 21/M03 Q1020

Closest aviation forecast (TAF) to Acacia Downs Airport

Forecast is more than 12 hours old.

Closest forecast is Whyalla Airport, 243.6 nm (451.1 km) WSW. Retrieved 2018/11/15 18:03 UTC (11 months ago):

TAF YWHA 151701Z 1518/1608 VRB05KT CAVOK FM152300 18012KT CAVOK FM160200 18018KT CAVOK